createdAt,value
2022-08-08T00:00:52.258Z,101032.44
2022-08-08T00:02:58.546Z,101028.75
2022-08-08T00:05:44.222Z,101033.72
2022-08-08T00:08:25.101Z,101031.19
2022-08-08T00:11:13.131Z,101036.19
2022-08-08T00:14:17.332Z,101033.84
2022-08-08T00:16:57.063Z,101032.66
2022-08-08T00:19:31.771Z,101036.94
2022-08-08T00:22:05.107Z,101047.94
2022-08-08T00:24:46.269Z,101037.38
2022-08-08T00:27:19.673Z,101043.38
2022-08-08T00:29:56.139Z,101036.06
2022-08-08T00:32:35.219Z,101036.91
2022-08-08T00:35:28.276Z,101037.06
2022-08-08T00:38:30.981Z,101037.91
2022-08-08T00:41:54.752Z,101038.38
2022-08-08T00:44:57.652Z,101044.00
2022-08-08T00:48:29.283Z,101040.97
2022-08-08T00:51:38.251Z,101040.38
2022-08-08T00:54:51.752Z,101043.66
2022-08-08T00:58:01.791Z,101036.13
2022-08-08T01:00:34.588Z,101035.44
2022-08-08T01:04:02.546Z,101031.25
2022-08-08T01:06:49.853Z,101029.38
2022-08-08T01:09:42.594Z,101034.47
2022-08-08T01:13:03.393Z,101032.66
2022-08-08T01:16:04.856Z,101034.47
2022-08-08T01:19:02.606Z,101035.63
2022-08-08T01:22:13.226Z,101033.41
2022-08-08T01:24:59.539Z,101030.63
2022-08-08T01:28:00.094Z,101035.47
2022-08-08T01:31:01.861Z,101036.47
2022-08-08T01:34:01.142Z,101036.94
2022-08-08T01:37:21.983Z,101043.28
2022-08-08T01:40:24.043Z,101044.28
2022-08-08T01:43:05.748Z,101040.53
2022-08-08T01:45:56.728Z,101041.69
2022-08-08T01:48:46.280Z,101032.84
2022-08-08T01:52:43.693Z,101035.22
2022-08-08T01:55:25.600Z,101038.84
2022-08-08T01:58:04.607Z,101048.88
2022-08-08T02:00:43.563Z,101042.22
2022-08-08T02:03:57.123Z,101043.22
2022-08-08T02:06:36.368Z,101046.56
2022-08-08T02:10:02.333Z,101050.34
2022-08-08T02:12:25.267Z,101048.38
2022-08-08T02:15:04.143Z,101057.22
2022-08-08T02:17:47.173Z,101050.94
2022-08-08T02:21:02.777Z,101046.94
2022-08-08T02:23:23.249Z,101049.34
2022-08-08T02:26:10.984Z,101049.34
2022-08-08T02:29:00.294Z,101051.34
2022-08-08T02:31:58.934Z,101055.75
2022-08-08T02:35:08.506Z,101057.75
2022-08-08T02:37:56.742Z,101051.88
2022-08-08T02:40:38.739Z,101053.16
2022-08-08T02:44:37.810Z,101049.44
2022-08-08T02:47:03.081Z,101046.41
2022-08-08T02:49:57.613Z,101054.22
2022-08-08T02:53:09.494Z,101055.22
2022-08-08T02:56:20.879Z,101055.53
2022-08-08T02:59:57.210Z,101059.63
2022-08-08T03:02:51.656Z,101059.22
2022-08-08T03:05:59.689Z,101053.63
2022-08-08T03:09:17.444Z,101062.63
2022-08-08T03:12:36.508Z,101055.22
2022-08-08T03:15:56.684Z,101048.22
2022-08-08T03:18:34.843Z,101049.06
2022-08-08T03:21:09.620Z,101055.06
2022-08-08T03:23:59.508Z,101045.72
2022-08-08T03:26:32.765Z,101044.88
2022-08-08T03:29:27.123Z,101046.00
2022-08-08T03:32:29.129Z,101053.59
2022-08-08T03:34:59.426Z,101053.78
2022-08-08T03:38:54.073Z,101058.38
2022-08-08T03:40:30.000Z,101053.38
2022-08-08T03:43:16.674Z,101055.34
2022-08-08T03:46:07.396Z,101063.63
2022-08-08T03:49:30.213Z,101064.91
2022-08-08T03:51:50.329Z,101066.03
2022-08-08T03:54:52.067Z,101062.16
2022-08-08T03:58:30.078Z,101071.09
2022-08-08T04:00:11.446Z,101067.06
2022-08-08T04:02:58.076Z,101077.41
2022-08-08T04:05:30.423Z,101091.72
2022-08-08T04:08:06.962Z,101076.72
2022-08-08T04:10:37.164Z,101088.91
2022-08-08T04:13:17.423Z,101082.84
2022-08-08T04:15:54.748Z,101084.13
2022-08-08T04:18:44.998Z,101088.16
2022-08-08T04:21:23.211Z,101087.47
2022-08-08T04:24:05.679Z,101095.59
2022-08-08T04:26:57.178Z,101094.91
2022-08-08T04:29:36.845Z,101097.44
2022-08-08T04:32:10.442Z,101094.91
2022-08-08T04:34:42.859Z,101094.66
2022-08-08T04:37:31.915Z,101100.78
2022-08-08T04:40:07.978Z,101095.59
2022-08-08T04:42:57.061Z,101101.78
2022-08-08T04:45:41.367Z,101102.31
2022-08-08T04:48:10.942Z,101108.19
2022-08-08T04:50:46.118Z,101108.59
2022-08-08T04:54:36.396Z,101111.97
2022-08-08T04:56:10.506Z,101118.50
2022-08-08T04:58:39.009Z,101119.34
2022-08-08T05:01:10.917Z,101125.09
2022-08-08T05:04:10.628Z,101123.78
2022-08-08T05:06:39.078Z,101126.19
2022-08-08T05:09:08.640Z,101127.00
2022-08-08T05:11:40.618Z,101132.06
2022-08-08T05:14:14.091Z,101133.56
2022-08-08T05:16:53.369Z,101130.88
2022-08-08T05:20:09.655Z,101122.44
2022-08-08T05:22:19.092Z,101131.56
2022-08-08T05:24:51.858Z,101133.41
2022-08-08T05:27:23.045Z,101135.47
2022-08-08T05:29:56.512Z,101145.00
2022-08-08T05:32:36.623Z,101138.38
2022-08-08T05:35:09.749Z,101146.38
2022-08-08T05:37:53.686Z,101147.59
2022-08-08T05:40:31.194Z,101150.66
2022-08-08T05:43:38.885Z,101146.53
2022-08-08T05:46:03.509Z,101146.19
2022-08-08T05:48:36.176Z,101145.88
2022-08-08T05:51:13.337Z,101145.13
2022-08-08T05:54:25.658Z,101145.03
2022-08-08T05:56:42.456Z,101151.69
2022-08-08T06:00:00.994Z,101152.44
2022-08-08T06:02:50.945Z,101153.22
2022-08-08T06:05:34.349Z,101164.78
2022-08-08T06:08:33.582Z,101159.53
2022-08-08T06:11:02.700Z,101169.56
2022-08-08T06:13:36.109Z,101163.94
2022-08-08T06:16:18.973Z,101168.66
2022-08-08T06:19:16.909Z,101169.88
2022-08-08T06:21:57.025Z,101177.41
2022-08-08T06:24:51.277Z,101175.63
2022-08-08T06:27:32.278Z,101178.03
2022-08-08T06:30:05.491Z,101179.91
2022-08-08T06:32:47.781Z,101178.59
2022-08-08T06:36:06.924Z,101177.28
2022-08-08T06:38:14.630Z,101185.50
2022-08-08T06:40:54.054Z,101183.06
2022-08-08T06:43:28.589Z,101181.44
2022-08-08T06:46:03.773Z,101176.13
2022-08-08T06:48:31.915Z,101171.66
2022-08-08T06:51:07.391Z,101176.19
2022-08-08T06:53:39.746Z,101176.72
2022-08-08T06:56:11.564Z,101172.09
2022-08-08T06:58:45.056Z,101176.59
2022-08-08T07:02:17.157Z,101188.19
2022-08-08T07:04:37.202Z,101190.00
2022-08-08T07:07:10.464Z,101180.56
2022-08-08T07:09:59.345Z,101177.03
2022-08-08T07:12:39.615Z,101182.88
2022-08-08T07:15:15.394Z,101184.75
2022-08-08T07:18:35.546Z,101184.75
2022-08-08T07:21:02.135Z,101192.13
2022-08-08T07:24:01.687Z,101198.81
2022-08-08T07:26:35.596Z,101197.28
2022-08-08T07:29:08.216Z,101199.47
2022-08-08T07:31:48.988Z,101199.47
2022-08-08T07:34:20.236Z,101188.09
2022-08-08T07:37:11.827Z,101198.63
2022-08-08T07:39:56.152Z,101193.06
2022-08-08T07:42:33.231Z,101199.41
2022-08-08T07:45:04.313Z,101204.75
2022-08-08T07:47:38.435Z,101198.72
2022-08-08T07:50:11.135Z,101204.88
2022-08-08T07:52:44.371Z,101202.16
2022-08-08T07:55:28.873Z,101195.09
2022-08-08T07:58:17.682Z,101197.59
2022-08-08T08:00:52.227Z,101203.91
2022-08-08T08:03:31.190Z,101199.50
2022-08-08T08:06:16.518Z,101197.47
2022-08-08T08:08:53.099Z,101199.25
2022-08-08T08:11:38.307Z,101203.38
2022-08-08T08:14:25.948Z,101201.31
2022-08-08T08:16:54.282Z,101206.63
2022-08-08T08:19:45.198Z,101210.75
2022-08-08T08:22:16.062Z,101206.66
2022-08-08T08:24:59.656Z,101203.44
2022-08-08T08:27:37.781Z,101216.41
2022-08-08T08:30:09.583Z,101207.47
2022-08-08T08:32:41.103Z,101200.16
2022-08-08T08:35:21.778Z,101209.81
2022-08-08T08:38:17.390Z,101200.81
2022-08-08T08:40:51.347Z,101205.22
2022-08-08T08:43:28.922Z,101208.84
2022-08-08T08:46:03.441Z,101204.31
2022-08-08T08:48:34.764Z,101204.59
2022-08-08T08:51:04.601Z,101208.38
2022-08-08T08:53:56.299Z,101202.44
2022-08-08T08:56:32.808Z,101204.03
2022-08-08T08:59:09.052Z,101203.53
2022-08-08T09:01:52.483Z,101198.81
2022-08-08T09:04:43.379Z,101194.97
2022-08-08T09:07:23.879Z,101195.81
2022-08-08T09:10:13.559Z,101195.97
2022-08-08T09:12:47.577Z,101190.91
2022-08-08T09:15:41.602Z,101193.66
2022-08-08T09:18:09.614Z,101193.69
2022-08-08T09:22:02.431Z,101196.47
2022-08-08T09:23:33.320Z,101185.44
2022-08-08T09:26:12.509Z,101184.53
2022-08-08T09:28:41.740Z,101190.38
2022-08-08T09:31:17.397Z,101183.34
2022-08-08T09:34:30.539Z,101181.38
2022-08-08T09:36:51.634Z,101176.66
2022-08-08T09:39:44.074Z,101175.63
2022-08-08T09:42:21.708Z,101172.84
2022-08-08T09:45:03.920Z,101172.69
2022-08-08T09:48:09.539Z,101170.88
2022-08-08T09:50:28.310Z,101168.25
2022-08-08T09:53:05.530Z,101173.47
2022-08-08T09:56:04.954Z,101166.03
2022-08-08T09:58:40.644Z,101169.38
2022-08-08T10:01:14.435Z,101162.34
2022-08-08T10:03:55.987Z,101169.91
2022-08-08T10:06:29.718Z,101169.31
2022-08-08T10:08:57.922Z,101164.13
2022-08-08T10:12:26.934Z,101160.81
2022-08-08T10:14:28.139Z,101162.50
2022-08-08T10:17:38.523Z,101167.88
2022-08-08T10:19:58.570Z,101163.31
2022-08-08T10:22:32.298Z,101155.63
2022-08-08T10:25:05.400Z,101157.53
2022-08-08T10:27:43.103Z,101158.59
2022-08-08T10:30:16.651Z,101153.38
2022-08-08T10:33:01.659Z,101149.84
2022-08-08T10:36:08.437Z,101149.00
2022-08-08T10:38:23.988Z,101146.06
2022-08-08T10:40:53.778Z,101136.66
2022-08-08T10:43:24.915Z,101132.94
2022-08-08T10:46:00.583Z,101128.75
2022-08-08T10:48:56.750Z,101134.34
2022-08-08T10:51:26.581Z,101130.31
2022-08-08T10:54:02.306Z,101131.31
2022-08-08T10:56:35.210Z,101128.78
2022-08-08T10:59:07.798Z,101119.59
2022-08-08T11:01:39.227Z,101125.00
2022-08-08T11:04:10.791Z,101118.13
2022-08-08T11:06:41.965Z,101123.16
2022-08-08T11:09:21.150Z,101115.63
2022-08-08T11:12:05.731Z,101117.06
2022-08-08T11:14:56.893Z,101116.47
2022-08-08T11:17:58.044Z,101115.63
2022-08-08T11:20:18.278Z,101117.47
2022-08-08T11:22:54.006Z,101112.22
2022-08-08T11:25:52.639Z,101111.88
2022-08-08T11:28:20.871Z,101109.69
2022-08-08T11:30:51.963Z,101101.28
2022-08-08T11:33:49.623Z,101104.16
2022-08-08T11:36:15.804Z,101101.16
2022-08-08T11:38:54.703Z,101101.56
2022-08-08T11:41:28.269Z,101101.47
2022-08-08T11:44:02.991Z,101101.94
2022-08-08T11:46:34.407Z,101106.88
2022-08-08T11:49:11.315Z,101104.69
2022-08-08T11:51:49.753Z,101096.09
2022-08-08T11:54:33.975Z,101092.72
2022-08-08T11:57:17.374Z,101092.25
2022-08-08T12:00:01.204Z,101096.56
2022-08-08T12:02:51.359Z,101087.31
2022-08-08T12:05:22.910Z,101091.84
2022-08-08T12:07:56.058Z,101077.16
2022-08-08T12:10:26.648Z,101074.50
2022-08-08T12:13:04.256Z,101077.66
2022-08-08T12:15:42.763Z,101077.03
2022-08-08T12:18:20.638Z,101080.06
2022-08-08T12:20:49.945Z,101071.94
2022-08-08T12:23:30.541Z,101075.38
2022-08-08T12:26:17.078Z,101071.84
2022-08-08T12:28:57.149Z,101072.38
2022-08-08T12:31:39.347Z,101067.47
2022-08-08T12:34:37.598Z,101059.06
2022-08-08T12:37:08.191Z,101067.47
2022-08-08T12:40:01.365Z,101055.53
2022-08-08T12:42:27.412Z,101056.72
2022-08-08T12:45:58.483Z,101054.00
2022-08-08T12:48:10.398Z,101048.94
2022-08-08T12:50:54.470Z,101053.28
2022-08-08T12:53:30.009Z,101043.81
2022-08-08T12:56:17.777Z,101035.75
2022-08-08T12:58:49.010Z,101037.72
2022-08-08T13:01:24.770Z,101035.47
2022-08-08T13:04:19.293Z,101043.22
2022-08-08T13:06:54.628Z,101040.94
2022-08-08T13:10:01.947Z,101037.56
2022-08-08T13:12:30.621Z,101034.31
2022-08-08T13:15:02.219Z,101032.09
2022-08-08T13:18:08.594Z,101034.03
2022-08-08T13:20:27.447Z,101026.50
2022-08-08T13:23:31.414Z,101030.56
2022-08-08T13:25:50.356Z,101029.31
2022-08-08T13:28:32.423Z,101027.59
2022-08-08T13:31:03.734Z,101025.28
2022-08-08T13:33:42.722Z,101027.88
2022-08-08T13:36:12.111Z,101016.31
2022-08-08T13:38:40.894Z,101016.00
2022-08-08T13:41:16.829Z,101023.06
2022-08-08T13:43:46.981Z,101022.22
2022-08-08T13:46:26.360Z,101014.66
2022-08-08T13:49:12.225Z,101005.03
2022-08-08T13:52:00.817Z,101014.88
2022-08-08T13:54:31.774Z,101008.88
2022-08-08T13:57:01.606Z,101007.81
2022-08-08T13:59:33.005Z,101000.78
2022-08-08T14:02:07.260Z,101001.44
2022-08-08T14:04:52.929Z,100995.94
2022-08-08T14:07:29.803Z,100990.31
2022-08-08T14:10:05.605Z,101000.41
2022-08-08T14:12:43.901Z,101002.03
2022-08-08T14:15:31.450Z,101008.69
2022-08-08T14:18:34.634Z,101003.25
2022-08-08T14:21:12.619Z,101001.19
2022-08-08T14:24:06.572Z,100999.44
2022-08-08T14:26:41.570Z,101000.16
2022-08-08T14:29:28.946Z,100996.25
2022-08-08T14:32:09.275Z,100990.56
2022-08-08T14:34:43.512Z,100993.94
2022-08-08T14:37:18.020Z,100989.81
2022-08-08T14:39:50.929Z,100988.66
2022-08-08T14:42:29.687Z,100982.69
2022-08-08T14:45:02.933Z,100987.16
2022-08-08T14:47:36.561Z,100986.03
2022-08-08T14:50:21.289Z,100977.03
2022-08-08T14:52:57.865Z,100973.72
2022-08-08T14:55:35.367Z,100965.75
2022-08-08T14:58:12.020Z,100975.06
2022-08-08T15:00:44.705Z,100982.66
2022-08-08T15:03:15.734Z,100963.56
2022-08-08T15:05:52.739Z,100963.75
2022-08-08T15:08:34.370Z,100969.50
2022-08-08T15:11:04.248Z,100964.63
2022-08-08T15:13:39.772Z,100967.97
2022-08-08T15:16:11.690Z,100968.88
2022-08-08T15:18:49.942Z,100967.31
2022-08-08T15:21:19.568Z,100966.69
2022-08-08T15:23:52.720Z,100971.81
2022-08-08T15:26:25.489Z,100978.03
2022-08-08T15:28:56.050Z,100964.59
2022-08-08T15:32:02.823Z,100955.34
2022-08-08T15:34:18.411Z,100946.84
2022-08-08T15:36:57.566Z,100944.41
2022-08-08T15:39:28.815Z,100950.75
2022-08-08T15:42:02.489Z,100951.44
2022-08-08T15:44:31.390Z,100953.59
2022-08-08T15:46:59.543Z,100947.38
2022-08-08T15:49:29.493Z,100945.91
2022-08-08T15:51:57.648Z,100941.03
2022-08-08T15:54:38.377Z,100938.75
2022-08-08T15:57:09.317Z,100937.06
2022-08-08T16:00:05.882Z,100933.94
2022-08-08T16:02:30.727Z,100932.13
2022-08-08T16:04:59.954Z,100926.81
2022-08-08T16:07:39.298Z,100935.41
2022-08-08T16:13:08.672Z,100923.94
2022-08-08T16:13:30.282Z,100924.56
2022-08-08T16:15:57.112Z,100928.19
2022-08-08T16:18:36.861Z,100917.13
2022-08-08T16:21:05.936Z,100916.03
2022-08-08T16:23:48.865Z,100909.13
2022-08-08T16:26:32.968Z,100911.56
2022-08-08T16:29:04.095Z,100906.69
2022-08-08T16:31:37.228Z,100909.53
2022-08-08T16:34:06.127Z,100907.50
2022-08-08T16:36:34.867Z,100910.34
2022-08-08T16:39:09.589Z,100901.47
2022-08-08T16:41:51.329Z,100909.44
2022-08-08T16:44:27.734Z,100905.41
2022-08-08T16:47:16.869Z,100905.19
2022-08-08T16:49:44.960Z,100901.63
2022-08-08T16:55:03.837Z,100905.47
2022-08-08T16:55:33.876Z,100904.06
2022-08-08T16:58:14.326Z,100894.38
2022-08-08T17:00:48.783Z,100899.84
2022-08-08T17:03:25.476Z,100901.59
2022-08-08T17:06:35.251Z,100898.16
2022-08-08T17:08:56.534Z,100898.44
2022-08-08T17:11:28.405Z,100896.94
2022-08-08T17:14:11.625Z,100900.22
2022-08-08T17:16:57.472Z,100908.31
2022-08-08T17:19:28.960Z,100902.94
2022-08-08T17:22:01.563Z,100909.44
2022-08-08T17:24:31.672Z,100907.66
2022-08-08T17:27:00.466Z,100908.59
2022-08-08T17:29:33.991Z,100910.31
2022-08-08T17:32:07.929Z,100906.59
2022-08-08T17:34:59.952Z,100910.66
2022-08-08T17:37:27.576Z,100918.81
2022-08-08T17:40:10.878Z,100926.19
2022-08-08T17:42:47.166Z,100932.41
2022-08-08T17:45:24.332Z,100926.41
2022-08-08T17:47:54.758Z,100933.81
2022-08-08T17:50:24.825Z,100934.19
2022-08-08T17:52:56.477Z,100932.25
2022-08-08T17:56:06.064Z,100940.78
2022-08-08T17:58:17.827Z,100946.16
2022-08-08T18:00:54.408Z,100946.53
2022-08-08T18:03:25.340Z,100949.03
2022-08-08T18:05:53.326Z,100957.00
2022-08-08T18:08:37.910Z,100960.44
2022-08-08T18:11:14.640Z,100961.03
2022-08-08T18:13:45.694Z,100960.06
2022-08-08T18:16:20.275Z,100964.22
2022-08-08T18:18:52.754Z,100964.59
2022-08-08T18:21:35.317Z,100973.09
2022-08-08T18:24:19.191Z,100976.34
2022-08-08T18:26:54.924Z,100972.59
2022-08-08T18:29:29.522Z,100982.19
2022-08-08T18:32:00.234Z,100985.53
2022-08-08T18:34:33.368Z,100987.72
2022-08-08T18:37:03.030Z,100988.84
2022-08-08T18:39:34.747Z,100994.84
2022-08-08T18:42:14.242Z,100994.28
2022-08-08T18:44:54.738Z,101005.19
2022-08-08T18:47:26.237Z,101008.75
2022-08-08T18:50:00.460Z,101011.44
2022-08-08T18:52:33.751Z,101014.31
2022-08-08T18:55:10.777Z,101020.78
2022-08-08T18:57:44.986Z,101026.38
2022-08-08T19:00:20.611Z,101035.88
2022-08-08T19:03:03.977Z,101039.34
2022-08-08T19:05:37.955Z,101044.84
2022-08-08T19:08:25.621Z,101049.91
2022-08-08T19:11:01.907Z,101052.66
2022-08-08T19:13:52.750Z,101062.31
2022-08-08T19:16:23.703Z,101064.50
2022-08-08T19:19:03.104Z,101062.06
2022-08-08T19:21:33.226Z,101064.63
2022-08-08T19:24:41.788Z,101069.44
2022-08-08T19:27:04.204Z,101081.31
2022-08-08T19:29:34.023Z,101075.75
2022-08-08T19:32:03.584Z,101078.47
2022-08-08T19:34:42.702Z,101084.72
2022-08-08T19:37:16.125Z,101090.78
2022-08-08T19:39:46.044Z,101093.03
2022-08-08T19:42:19.042Z,101090.97
2022-08-08T19:44:50.594Z,101098.63
2022-08-08T19:47:24.669Z,101101.97
2022-08-08T19:49:59.592Z,101106.72
2022-08-08T19:52:34.653Z,101104.44
2022-08-08T19:55:08.796Z,101102.31
2022-08-08T19:57:37.861Z,101103.13
2022-08-08T20:00:11.545Z,101106.84
2022-08-08T20:02:57.726Z,101109.91
2022-08-08T20:06:16.147Z,101113.03
2022-08-08T20:08:28.279Z,101118.78
2022-08-08T20:11:00.245Z,101122.06
2022-08-08T20:14:31.492Z,101116.44
2022-08-08T20:16:18.054Z,101121.13
2022-08-08T20:18:52.569Z,101123.78
2022-08-08T20:21:25.807Z,101130.19
2022-08-08T20:23:58.011Z,101130.13
2022-08-08T20:26:33.402Z,101131.31
2022-08-08T20:29:02.954Z,101139.38
2022-08-08T20:32:07.661Z,101137.47
2022-08-08T20:34:28.823Z,101140.13
2022-08-08T20:37:00.766Z,101138.81
2022-08-08T20:39:39.149Z,101144.09
2022-08-08T20:42:20.410Z,101143.84
2022-08-08T20:44:52.494Z,101145.63
2022-08-08T20:47:36.251Z,101140.19
2022-08-08T20:50:09.996Z,101146.19
2022-08-08T20:52:40.702Z,101151.31
2022-08-08T20:55:25.739Z,101153.75
2022-08-08T20:57:54.456Z,101156.38
2022-08-08T21:00:26.447Z,101152.59
2022-08-08T21:02:54.662Z,101161.25
2022-08-08T21:05:23.197Z,101168.22
2022-08-08T21:08:33.545Z,101170.84
2022-08-08T21:10:41.539Z,101166.19
2022-08-08T21:13:10.157Z,101169.84
2022-08-08T21:16:03.929Z,101174.50
2022-08-08T21:18:27.979Z,101167.72
2022-08-08T21:20:56.428Z,101171.16
2022-08-08T21:23:58.884Z,101174.81
2022-08-08T21:26:21.002Z,101178.44
2022-08-08T21:29:01.084Z,101168.97
2022-08-08T21:31:53.038Z,101174.91
2022-08-08T21:34:19.541Z,101176.66
2022-08-08T21:36:48.781Z,101178.00
2022-08-08T21:39:19.594Z,101181.44
2022-08-08T21:41:53.780Z,101184.88
2022-08-08T21:44:29.616Z,101181.34
2022-08-08T21:48:04.029Z,101182.66
2022-08-08T21:49:48.619Z,101187.84
2022-08-08T21:54:22.583Z,101185.16
2022-08-08T21:56:06.574Z,101188.59
2022-08-08T21:58:05.441Z,101186.00
2022-08-08T22:00:40.897Z,101183.31
2022-08-08T22:03:10.923Z,101187.66
2022-08-08T22:05:43.716Z,101189.59
2022-08-08T22:08:12.480Z,101193.22
2022-08-08T22:10:45.209Z,101195.25
2022-08-08T22:13:21.406Z,101195.44
2022-08-08T22:15:58.780Z,101201.19
2022-08-08T22:18:32.869Z,101203.31
2022-08-08T22:21:14.602Z,101196.81
2022-08-08T22:23:51.603Z,101203.75
2022-08-08T22:26:28.806Z,101203.56
2022-08-08T22:29:04.612Z,101205.97
2022-08-08T22:31:43.918Z,101207.34
2022-08-08T22:34:27.153Z,101209.91
2022-08-08T22:36:55.281Z,101206.75
2022-08-08T22:39:23.377Z,101208.97
2022-08-08T22:42:11.354Z,101212.84
2022-08-08T22:44:41.847Z,101205.97
2022-08-08T22:47:17.953Z,101200.97
2022-08-08T22:49:53.709Z,101206.34
2022-08-08T22:52:33.576Z,101201.69
2022-08-08T22:55:05.548Z,101209.78
2022-08-08T22:57:44.338Z,101207.00
2022-08-08T23:00:18.163Z,101206.69
2022-08-08T23:02:50.428Z,101208.25
2022-08-08T23:05:21.546Z,101210.44
2022-08-08T23:07:57.478Z,101207.63
2022-08-08T23:10:27.737Z,101216.03
2022-08-08T23:12:57.076Z,101218.72
2022-08-08T23:16:38.996Z,101219.25
2022-08-08T23:18:13.275Z,101220.28
2022-08-08T23:20:44.157Z,101224.00
2022-08-08T23:23:13.264Z,101225.69
2022-08-08T23:25:48.255Z,101224.19
2022-08-08T23:28:19.139Z,101229.44
2022-08-08T23:30:47.966Z,101224.25
2022-08-08T23:33:21.294Z,101230.50
2022-08-08T23:36:08.237Z,101232.00
2022-08-08T23:38:44.540Z,101241.22
2022-08-08T23:41:24.907Z,101240.75
2022-08-08T23:43:56.901Z,101246.13
2022-08-08T23:49:04.618Z,101240.47
2022-08-08T23:49:18.777Z,101246.00
2022-08-08T23:52:04.029Z,101240.31
2022-08-08T23:54:42.478Z,101244.34
2022-08-08T23:57:27.458Z,101251.22
